sensor_id;sensor_type;location;lat;lon;timestamp;pressure;altitude;pressure_sealevel;temperature;humidity
55418;BME280;41287;47.554;7.844;2022-07-06T00:01:43;98554.03;;;22.90;54.62
55418;BME280;41287;47.554;7.844;2022-07-06T00:04:08;98547.41;;;22.91;54.22
55418;BME280;41287;47.554;7.844;2022-07-06T00:06:34;98557.56;;;22.91;54.11
55418;BME280;41287;47.554;7.844;2022-07-06T00:09:03;98553.69;;;22.92;54.23
55418;BME280;41287;47.554;7.844;2022-07-06T00:11:31;98561.09;;;22.91;54.40
55418;BME280;41287;47.554;7.844;2022-07-06T00:14:00;98561.88;;;22.92;54.04
55418;BME280;41287;47.554;7.844;2022-07-06T00:16:26;98558.34;;;22.91;54.53
55418;BME280;41287;47.554;7.844;2022-07-06T00:18:51;98555.63;;;22.91;54.51
55418;BME280;41287;47.554;7.844;2022-07-06T00:21:19;98557.56;;;22.91;54.55
55418;BME280;41287;47.554;7.844;2022-07-06T00:23:44;98560.28;;;22.91;54.21
55418;BME280;41287;47.554;7.844;2022-07-06T00:26:10;98552.09;;;22.91;54.68
55418;BME280;41287;47.554;7.844;2022-07-06T00:28:35;98555.63;;;22.91;54.32
55418;BME280;41287;47.554;7.844;2022-07-06T00:31:01;98550.16;;;22.91;54.43
55418;BME280;41287;47.554;7.844;2022-07-06T00:33:27;98551.28;;;22.90;54.54
55418;BME280;41287;47.554;7.844;2022-07-06T00:35:52;98554.81;;;22.91;54.50
55418;BME280;41287;47.554;7.844;2022-07-06T00:38:18;98550.16;;;22.91;54.16
55418;BME280;41287;47.554;7.844;2022-07-06T00:40:43;98558.34;;;22.91;54.23
55418;BME280;41287;47.554;7.844;2022-07-06T00:43:09;98555.63;;;22.91;54.59
55418;BME280;41287;47.554;7.844;2022-07-06T00:45:35;98554.81;;;22.91;54.44
55418;BME280;41287;47.554;7.844;2022-07-06T00:48:02;98548.22;;;22.92;54.65
55418;BME280;41287;47.554;7.844;2022-07-06T00:50:27;98559.16;;;22.92;54.54
55418;BME280;41287;47.554;7.844;2022-07-06T00:53:01;98553.22;;;22.90;54.61
55418;BME280;41287;47.554;7.844;2022-07-06T00:55:31;98554.81;;;22.91;54.64
55418;BME280;41287;47.554;7.844;2022-07-06T00:57:57;98554.03;;;22.90;54.41
55418;BME280;41287;47.554;7.844;2022-07-06T01:00:26;98552.88;;;22.91;54.63
55418;BME280;41287;47.554;7.844;2022-07-06T01:02:52;98554.03;;;22.90;54.41
55418;BME280;41287;47.554;7.844;2022-07-06T01:05:20;98554.03;;;22.90;54.38
55418;BME280;41287;47.554;7.844;2022-07-06T01:07:47;98552.09;;;22.91;54.37
55418;BME280;41287;47.554;7.844;2022-07-06T01:10:14;98565.75;;;22.91;54.50
55418;BME280;41287;47.554;7.844;2022-07-06T01:12:41;98554.81;;;22.91;54.69
55418;BME280;41287;47.554;7.844;2022-07-06T01:15:09;98555.63;;;22.91;54.40
55418;BME280;41287;47.554;7.844;2022-07-06T01:17:35;98559.16;;;22.92;54.17
55418;BME280;41287;47.554;7.844;2022-07-06T01:20:08;98555.97;;;22.90;54.42
55418;BME280;41287;47.554;7.844;2022-07-06T01:22:35;98551.28;;;22.90;54.46
55418;BME280;41287;47.554;7.844;2022-07-06T01:25:00;98558.34;;;22.91;54.24
55418;BME280;41287;47.554;7.844;2022-07-06T01:27:26;98555.63;;;22.91;54.39
55418;BME280;41287;47.554;7.844;2022-07-06T01:29:51;98555.63;;;22.91;54.58
55418;BME280;41287;47.554;7.844;2022-07-06T01:32:17;98556.75;;;22.90;54.65
55418;BME280;41287;47.554;7.844;2022-07-06T01:34:42;98549.34;;;22.91;54.61
55418;BME280;41287;47.554;7.844;2022-07-06T01:37:08;98549.34;;;22.91;54.58
55418;BME280;41287;47.554;7.844;2022-07-06T01:39:33;98558.34;;;22.91;54.67
55418;BME280;41287;47.554;7.844;2022-07-06T01:41:59;98564.16;;;22.90;54.38
55418;BME280;41287;47.554;7.844;2022-07-06T01:44:24;98557.56;;;22.91;54.48
55418;BME280;41287;47.554;7.844;2022-07-06T01:46:50;98554.81;;;22.91;54.41
55418;BME280;41287;47.554;7.844;2022-07-06T01:49:15;98557.56;;;22.91;54.34
55418;BME280;41287;47.554;7.844;2022-07-06T01:51:40;98554.03;;;22.90;54.23
55418;BME280;41287;47.554;7.844;2022-07-06T01:54:08;98552.09;;;22.91;54.47
55418;BME280;41287;47.554;7.844;2022-07-06T01:56:34;98552.09;;;22.91;54.65
55418;BME280;41287;47.554;7.844;2022-07-06T01:58:59;98546.63;;;22.91;54.19
55418;BME280;41287;47.554;7.844;2022-07-06T02:01:24;98557.56;;;22.91;54.41
55418;BME280;41287;47.554;7.844;2022-07-06T02:03:52;98548.56;;;22.90;54.44
55418;BME280;41287;47.554;7.844;2022-07-06T02:06:17;98549.34;;;22.91;54.69
55418;BME280;41287;47.554;7.844;2022-07-06T02:08:43;98549.34;;;22.91;54.66
55418;BME280;41287;47.554;7.844;2022-07-06T02:11:11;98551.28;;;22.90;54.48
55418;BME280;41287;47.554;7.844;2022-07-06T02:13:37;98551.28;;;22.90;54.45
55418;BME280;41287;47.554;7.844;2022-07-06T02:16:03;98555.63;;;22.91;54.31
55418;BME280;41287;47.554;7.844;2022-07-06T02:18:29;98555.63;;;22.91;54.51
55418;BME280;41287;47.554;7.844;2022-07-06T02:20:56;98556.75;;;22.90;54.30
55418;BME280;41287;47.554;7.844;2022-07-06T02:23:23;98550.50;;;22.90;54.55
55418;BME280;41287;47.554;7.844;2022-07-06T02:25:49;98553.22;;;22.90;54.32
55418;BME280;41287;47.554;7.844;2022-07-06T02:28:16;98557.56;;;22.91;54.21
55418;BME280;41287;47.554;7.844;2022-07-06T02:30:42;98558.34;;;22.91;54.19
55418;BME280;41287;47.554;7.844;2022-07-06T02:33:07;98552.88;;;22.91;54.50
55418;BME280;41287;47.554;7.844;2022-07-06T02:35:32;98552.09;;;22.91;54.54
55418;BME280;41287;47.554;7.844;2022-07-06T02:38:00;98553.22;;;22.90;54.62
55418;BME280;41287;47.554;7.844;2022-07-06T02:40:25;98555.97;;;22.90;54.69
55418;BME280;41287;47.554;7.844;2022-07-06T02:42:51;98559.50;;;22.90;54.26
55418;BME280;41287;47.554;7.844;2022-07-06T02:45:18;98559.50;;;22.90;54.24
55418;BME280;41287;47.554;7.844;2022-07-06T02:47:44;98554.81;;;22.91;54.69
55418;BME280;41287;47.554;7.844;2022-07-06T02:50:09;98562.22;;;22.90;54.67
55418;BME280;41287;47.554;7.844;2022-07-06T02:52:35;98560.28;;;22.91;54.26
55418;BME280;41287;47.554;7.844;2022-07-06T02:55:00;98559.50;;;22.90;54.46
55418;BME280;41287;47.554;7.844;2022-07-06T02:57:26;98573.94;;;22.91;54.39
55418;BME280;41287;47.554;7.844;2022-07-06T02:59:51;98576.69;;;22.91;54.51
55418;BME280;41287;47.554;7.844;2022-07-06T03:02:19;98576.69;;;22.91;54.60
55418;BME280;41287;47.554;7.844;2022-07-06T03:04:46;98578.63;;;22.90;54.38
55418;BME280;41287;47.554;7.844;2022-07-06T03:07:11;98582.16;;;22.91;54.51
55418;BME280;41287;47.554;7.844;2022-07-06T03:09:37;98576.69;;;22.91;54.21
55418;BME280;41287;47.554;7.844;2022-07-06T03:12:02;98581.34;;;22.90;54.65
55418;BME280;41287;47.554;7.844;2022-07-06T03:14:28;98584.09;;;22.90;54.54
55418;BME280;41287;47.554;7.844;2022-07-06T03:16:53;98573.16;;;22.90;54.44
55418;BME280;41287;47.554;7.844;2022-07-06T03:19:19;98581.34;;;22.90;54.45
55418;BME280;41287;47.554;7.844;2022-07-06T03:21:45;98578.63;;;22.90;54.41
55418;BME280;41287;47.554;7.844;2022-07-06T03:24:10;98578.63;;;22.90;54.25
55418;BME280;41287;47.554;7.844;2022-07-06T03:26:36;98587.63;;;22.91;54.51
55418;BME280;41287;47.554;7.844;2022-07-06T03:29:02;98589.53;;;22.90;54.52
55418;BME280;41287;47.554;7.844;2022-07-06T03:31:27;98586.00;;;22.90;54.63
55418;BME280;41287;47.554;7.844;2022-07-06T03:33:52;98586.81;;;22.90;54.88
55418;BME280;41287;47.554;7.844;2022-07-06T03:36:20;98584.88;;;22.91;54.25
55418;BME280;41287;47.554;7.844;2022-07-06T03:38:48;98584.09;;;22.90;54.34
55418;BME280;41287;47.554;7.844;2022-07-06T03:41:13;98583.28;;;22.90;54.65
55418;BME280;41287;47.554;7.844;2022-07-06T03:43:38;98580.22;;;22.91;54.64
55418;BME280;41287;47.554;7.844;2022-07-06T03:46:06;98576.69;;;22.91;54.29
55418;BME280;41287;47.554;7.844;2022-07-06T03:48:31;98582.16;;;22.91;54.39
55418;BME280;41287;47.554;7.844;2022-07-06T03:50:57;98581.34;;;22.90;54.29
55418;BME280;41287;47.554;7.844;2022-07-06T03:53:24;98573.94;;;22.91;54.25
55418;BME280;41287;47.554;7.844;2022-07-06T03:55:52;98582.16;;;22.91;54.39
55418;BME280;41287;47.554;7.844;2022-07-06T03:58:36;98579.41;;;22.91;54.61
55418;BME280;41287;47.554;7.844;2022-07-06T04:01:01;98589.53;;;22.90;54.71
55418;BME280;41287;47.554;7.844;2022-07-06T04:03:27;98587.94;;;22.89;54.42
55418;BME280;41287;47.554;7.844;2022-07-06T04:05:52;98586.00;;;22.90;54.25
55418;BME280;41287;47.554;7.844;2022-07-06T04:08:18;98586.81;;;22.90;54.54
55418;BME280;41287;47.554;7.844;2022-07-06T04:10:44;98589.53;;;22.90;54.51
55418;BME280;41287;47.554;7.844;2022-07-06T04:13:10;98586.81;;;22.90;54.61
55418;BME280;41287;47.554;7.844;2022-07-06T04:15:35;98586.00;;;22.90;54.65
55418;BME280;41287;47.554;7.844;2022-07-06T04:18:01;98587.94;;;22.89;54.76
55418;BME280;41287;47.554;7.844;2022-07-06T04:20:28;98587.94;;;22.89;54.40
55418;BME280;41287;47.554;7.844;2022-07-06T04:22:56;98591.47;;;22.90;54.30
55418;BME280;41287;47.554;7.844;2022-07-06T04:25:21;98588.75;;;22.90;54.26
55418;BME280;41287;47.554;7.844;2022-07-06T04:27:47;98592.28;;;22.90;54.71
55418;BME280;41287;47.554;7.844;2022-07-06T04:30:14;98595.81;;;22.91;54.62
55418;BME280;41287;47.554;7.844;2022-07-06T04:32:40;98592.28;;;22.90;54.20
55418;BME280;41287;47.554;7.844;2022-07-06T04:35:06;98599.69;;;22.90;54.66
55418;BME280;41287;47.554;7.844;2022-07-06T04:37:34;98590.69;;;22.89;54.47
55418;BME280;41287;47.554;7.844;2022-07-06T04:39:59;98594.22;;;22.90;54.52
55418;BME280;41287;47.554;7.844;2022-07-06T04:42:25;98594.22;;;22.90;54.40
55418;BME280;41287;47.554;7.844;2022-07-06T04:44:52;98592.63;;;22.89;54.66
55418;BME280;41287;47.554;7.844;2022-07-06T04:47:18;98594.22;;;22.90;54.66
55418;BME280;41287;47.554;7.844;2022-07-06T04:49:43;98591.47;;;22.90;54.62
55418;BME280;41287;47.554;7.844;2022-07-06T04:52:09;98592.28;;;22.90;54.64
55418;BME280;41287;47.554;7.844;2022-07-06T04:54:36;98598.88;;;22.89;54.54
55418;BME280;41287;47.554;7.844;2022-07-06T04:57:02;98603.22;;;22.90;54.23
55418;BME280;41287;47.554;7.844;2022-07-06T04:59:28;98598.88;;;22.89;54.38
55418;BME280;41287;47.554;7.844;2022-07-06T05:01:53;98604.34;;;22.89;54.21
55418;BME280;41287;47.554;7.844;2022-07-06T05:04:21;98607.88;;;22.90;54.73
55418;BME280;41287;47.554;7.844;2022-07-06T05:06:47;98607.88;;;22.90;54.45
55418;BME280;41287;47.554;7.844;2022-07-06T05:09:13;98611.75;;;22.89;54.71
55418;BME280;41287;47.554;7.844;2022-07-06T05:11:39;98611.75;;;22.89;54.40
55418;BME280;41287;47.554;7.844;2022-07-06T05:14:05;98615.28;;;22.89;54.48
55418;BME280;41287;47.554;7.844;2022-07-06T05:16:31;98605.16;;;22.90;54.58
55418;BME280;41287;47.554;7.844;2022-07-06T05:18:57;98610.63;;;22.90;54.54
55418;BME280;41287;47.554;7.844;2022-07-06T05:21:24;98608.69;;;22.90;54.41
55418;BME280;41287;47.554;7.844;2022-07-06T05:23:50;98609.47;;;22.91;54.48
55418;BME280;41287;47.554;7.844;2022-07-06T05:26:15;98607.88;;;22.90;54.58
55418;BME280;41287;47.554;7.844;2022-07-06T05:28:41;98613.34;;;22.90;54.51
55418;BME280;41287;47.554;7.844;2022-07-06T05:31:07;98615.28;;;22.89;54.55
55418;BME280;41287;47.554;7.844;2022-07-06T05:33:32;98618.81;;;22.90;54.82
55418;BME280;41287;47.554;7.844;2022-07-06T05:35:58;98629.75;;;22.90;54.37
55418;BME280;41287;47.554;7.844;2022-07-06T05:38:25;98625.06;;;22.90;54.31
55418;BME280;41287;47.554;7.844;2022-07-06T05:40:50;98628.94;;;22.89;54.59
55418;BME280;41287;47.554;7.844;2022-07-06T05:43:16;98627.00;;;22.90;54.34
55418;BME280;41287;47.554;7.844;2022-07-06T05:45:42;98632.47;;;22.90;54.51
55418;BME280;41287;47.554;7.844;2022-07-06T05:48:07;98627.81;;;22.90;54.31
55418;BME280;41287;47.554;7.844;2022-07-06T05:50:53;98635.22;;;22.90;54.73
55418;BME280;41287;47.554;7.844;2022-07-06T05:53:22;98632.47;;;22.90;54.76
55418;BME280;41287;47.554;7.844;2022-07-06T05:55:49;98637.94;;;22.90;54.62
55418;BME280;41287;47.554;7.844;2022-07-06T05:58:15;98632.47;;;22.90;54.38
55418;BME280;41287;47.554;7.844;2022-07-06T06:00:41;98636.34;;;22.89;54.61
55418;BME280;41287;47.554;7.844;2022-07-06T06:03:06;98637.13;;;22.89;54.69
55418;BME280;41287;47.554;7.844;2022-07-06T06:05:32;98641.81;;;22.89;54.54
55418;BME280;41287;47.554;7.844;2022-07-06T06:07:57;98637.94;;;22.90;54.28
55418;BME280;41287;47.554;7.844;2022-07-06T06:10:23;98637.94;;;22.90;54.55
55418;BME280;41287;47.554;7.844;2022-07-06T06:12:51;98640.66;;;22.90;54.65
55418;BME280;41287;47.554;7.844;2022-07-06T06:15:16;98639.88;;;22.89;54.27
55418;BME280;41287;47.554;7.844;2022-07-06T06:17:42;98641.81;;;22.89;54.35
55418;BME280;41287;47.554;7.844;2022-07-06T06:20:10;98642.59;;;22.89;54.38
55418;BME280;41287;47.554;7.844;2022-07-06T06:22:46;98644.53;;;22.89;54.35
55418;BME280;41287;47.554;7.844;2022-07-06T06:25:13;98641.81;;;22.89;54.49
55418;BME280;41287;47.554;7.844;2022-07-06T06:27:38;98645.78;;;22.91;54.40
55418;BME280;41287;47.554;7.844;2022-07-06T06:30:06;98646.47;;;22.88;54.75
55418;BME280;41287;47.554;7.844;2022-07-06T06:32:31;98643.41;;;22.90;54.63
55418;BME280;41287;47.554;7.844;2022-07-06T06:34:56;98651.59;;;22.90;54.32
55418;BME280;41287;47.554;7.844;2022-07-06T06:37:22;98648.06;;;22.89;54.26
55418;BME280;41287;47.554;7.844;2022-07-06T06:39:47;98644.53;;;22.89;54.64
55418;BME280;41287;47.554;7.844;2022-07-06T06:42:13;98647.28;;;22.89;54.62
55418;BME280;41287;47.554;7.844;2022-07-06T06:44:38;98639.06;;;22.89;54.32
55418;BME280;41287;47.554;7.844;2022-07-06T06:47:05;98647.28;;;22.89;54.39
55418;BME280;41287;47.554;7.844;2022-07-06T06:49:31;98641.81;;;22.89;54.53
55418;BME280;41287;47.554;7.844;2022-07-06T06:51:56;98638.28;;;22.88;54.70
55418;BME280;41287;47.554;7.844;2022-07-06T06:54:22;98641.81;;;22.89;54.35
55418;BME280;41287;47.554;7.844;2022-07-06T06:56:47;98642.94;;;22.88;54.67
55418;BME280;41287;47.554;7.844;2022-07-06T06:59:13;98641.00;;;22.88;54.45
55418;BME280;41287;47.554;7.844;2022-07-06T07:01:38;98641.00;;;22.88;54.40
55418;BME280;41287;47.554;7.844;2022-07-06T07:04:05;98633.63;;;22.89;54.29
55418;BME280;41287;47.554;7.844;2022-07-06T07:06:31;98629.28;;;22.88;54.32
55418;BME280;41287;47.554;7.844;2022-07-06T07:08:57;98630.88;;;22.89;54.50
55418;BME280;41287;47.554;7.844;2022-07-06T07:11:24;98626.56;;;22.88;54.38
55418;BME280;41287;47.554;7.844;2022-07-06T07:13:49;98621.09;;;22.88;54.49
55418;BME280;41287;47.554;7.844;2022-07-06T07:16:15;98630.09;;;22.88;54.55
55418;BME280;41287;47.554;7.844;2022-07-06T07:18:42;98625.41;;;22.89;54.55
55418;BME280;41287;47.554;7.844;2022-07-06T07:21:10;98619.16;;;22.88;54.53
55418;BME280;41287;47.554;7.844;2022-07-06T07:23:35;98621.88;;;22.88;54.38
55418;BME280;41287;47.554;7.844;2022-07-06T07:26:01;98621.88;;;22.88;54.53
55418;BME280;41287;47.554;7.844;2022-07-06T07:28:28;98625.41;;;22.89;54.45
55418;BME280;41287;47.554;7.844;2022-07-06T07:30:55;98626.56;;;22.88;54.38
55418;BME280;41287;47.554;7.844;2022-07-06T07:33:21;98627.34;;;22.88;54.81
55418;BME280;41287;47.554;7.844;2022-07-06T07:35:48;98630.88;;;22.89;54.49
55418;BME280;41287;47.554;7.844;2022-07-06T07:38:15;98629.28;;;22.88;54.42
55418;BME280;41287;47.554;7.844;2022-07-06T07:40:41;98634.75;;;22.88;54.25
55418;BME280;41287;47.554;7.844;2022-07-06T07:43:06;98637.47;;;22.88;54.78
55418;BME280;41287;47.554;7.844;2022-07-06T07:45:32;98642.16;;;22.87;54.74
55418;BME280;41287;47.554;7.844;2022-07-06T07:47:57;98637.47;;;22.88;54.41
55418;BME280;41287;47.554;7.844;2022-07-06T07:50:23;98644.53;;;22.89;54.48
55418;BME280;41287;47.554;7.844;2022-07-06T07:52:48;98639.06;;;22.89;54.31
55418;BME280;41287;47.554;7.844;2022-07-06T07:55:15;98641.00;;;22.88;54.67
55418;BME280;41287;47.554;7.844;2022-07-06T07:57:41;98634.75;;;22.88;54.70
55418;BME280;41287;47.554;7.844;2022-07-06T08:00:06;98637.47;;;22.88;54.36
55418;BME280;41287;47.554;7.844;2022-07-06T08:02:34;98653.09;;;22.87;54.67
55418;BME280;41287;47.554;7.844;2022-07-06T08:04:59;98649.22;;;22.88;54.29
55418;BME280;41287;47.554;7.844;2022-07-06T08:07:25;98648.41;;;22.88;54.32
55418;BME280;41287;47.554;7.844;2022-07-06T08:09:50;98645.69;;;22.88;54.26
55418;BME280;41287;47.554;7.844;2022-07-06T08:12:17;98650.34;;;22.87;54.42
55418;BME280;41287;47.554;7.844;2022-07-06T08:14:43;98644.88;;;22.87;54.68
55418;BME280;41287;47.554;7.844;2022-07-06T08:17:08;98642.16;;;22.87;54.35
55418;BME280;41287;47.554;7.844;2022-07-06T08:19:35;98642.94;;;22.88;54.41
55418;BME280;41287;47.554;7.844;2022-07-06T08:22:01;98642.94;;;22.88;54.59
55418;BME280;41287;47.554;7.844;2022-07-06T08:24:32;98641.00;;;22.88;54.46
55418;BME280;41287;47.554;7.844;2022-07-06T08:26:57;98642.16;;;22.87;54.33
55418;BME280;41287;47.554;7.844;2022-07-06T08:29:25;98638.63;;;22.87;54.39
55418;BME280;41287;47.554;7.844;2022-07-06T08:31:50;98639.06;;;22.89;54.49
55418;BME280;41287;47.554;7.844;2022-07-06T08:34:15;98633.94;;;22.87;54.72
55418;BME280;41287;47.554;7.844;2022-07-06T08:36:43;98638.63;;;22.87;54.32
55418;BME280;41287;47.554;7.844;2022-07-06T08:39:08;98635.09;;;22.86;54.40
55418;BME280;41287;47.554;7.844;2022-07-06T08:41:34;98631.22;;;22.87;54.74
55418;BME280;41287;47.554;7.844;2022-07-06T08:44:01;98637.47;;;22.88;54.69
55418;BME280;41287;47.554;7.844;2022-07-06T08:46:28;98637.47;;;22.88;54.42
55418;BME280;41287;47.554;7.844;2022-07-06T08:48:54;98641.34;;;22.87;54.55
55418;BME280;41287;47.554;7.844;2022-07-06T08:51:20;98649.56;;;22.87;54.75
55418;BME280;41287;47.554;7.844;2022-07-06T08:53:48;98648.75;;;22.86;54.31
55418;BME280;41287;47.554;7.844;2022-07-06T08:56:16;98640.56;;;22.86;54.26
55418;BME280;41287;47.554;7.844;2022-07-06T08:58:41;98642.16;;;22.87;54.58
55418;BME280;41287;47.554;7.844;2022-07-06T09:01:10;98651.16;;;22.88;54.61
55418;BME280;41287;47.554;7.844;2022-07-06T09:03:38;98655.81;;;22.87;54.71
55418;BME280;41287;47.554;7.844;2022-07-06T09:06:06;98660.13;;;22.88;54.76
55418;BME280;41287;47.554;7.844;2022-07-06T09:08:32;98655.81;;;22.87;54.23
55418;BME280;41287;47.554;7.844;2022-07-06T09:10:59;98653.09;;;22.87;54.51
55418;BME280;41287;47.554;7.844;2022-07-06T09:13:26;98653.09;;;22.87;54.70
55418;BME280;41287;47.554;7.844;2022-07-06T09:15:51;98646.81;;;22.87;54.53
55418;BME280;41287;47.554;7.844;2022-07-06T09:18:20;98653.09;;;22.87;54.49
55418;BME280;41287;47.554;7.844;2022-07-06T09:20:46;98655.03;;;22.87;54.63
55418;BME280;41287;47.554;7.844;2022-07-06T09:23:15;98656.94;;;22.86;54.43
55418;BME280;41287;47.554;7.844;2022-07-06T09:25:41;98657.75;;;22.87;54.35
55418;BME280;41287;47.554;7.844;2022-07-06T09:28:08;98658.56;;;22.87;54.68
55418;BME280;41287;47.554;7.844;2022-07-06T09:30:34;98662.41;;;22.86;54.42
55418;BME280;41287;47.554;7.844;2022-07-06T09:33:07;98660.47;;;22.87;54.64
55418;BME280;41287;47.554;7.844;2022-07-06T09:35:37;98666.75;;;22.87;54.26
55418;BME280;41287;47.554;7.844;2022-07-06T09:38:09;98666.75;;;22.87;54.51
55418;BME280;41287;47.554;7.844;2022-07-06T09:40:41;98671.41;;;22.87;54.70
55418;BME280;41287;47.554;7.844;2022-07-06T09:45:40;98669.47;;;22.87;54.55
55418;BME280;41287;47.554;7.844;2022-07-06T09:48:11;98662.41;;;22.86;54.56
55418;BME280;41287;47.554;7.844;2022-07-06T09:50:46;98671.41;;;22.87;54.70
55418;BME280;41287;47.554;7.844;2022-07-06T09:53:14;98666.75;;;22.87;54.68
55418;BME280;41287;47.554;7.844;2022-07-06T09:55:44;98665.94;;;22.87;54.57
55418;BME280;41287;47.554;7.844;2022-07-06T09:58:10;98667.88;;;22.86;54.50
55418;BME280;41287;47.554;7.844;2022-07-06T10:00:37;98668.69;;;22.87;54.72
55418;BME280;41287;47.554;7.844;2022-07-06T10:03:05;98665.94;;;22.87;54.40
55418;BME280;41287;47.554;7.844;2022-07-06T10:05:32;98666.75;;;22.87;54.62
55418;BME280;41287;47.554;7.844;2022-07-06T10:08:01;98669.47;;;22.87;54.46
55418;BME280;41287;47.554;7.844;2022-07-06T10:10:31;98663.22;;;22.87;54.41
55418;BME280;41287;47.554;7.844;2022-07-06T10:12:57;98665.94;;;22.87;54.30
55418;BME280;41287;47.554;7.844;2022-07-06T10:15:27;98662.41;;;22.86;54.64
55418;BME280;41287;47.554;7.844;2022-07-06T10:17:55;98664.81;;;22.88;54.36
55418;BME280;41287;47.554;7.844;2022-07-06T10:20:21;98655.03;;;22.87;54.46
55418;BME280;41287;47.554;7.844;2022-07-06T10:22:50;98653.44;;;22.86;54.78
55418;BME280;41287;47.554;7.844;2022-07-06T10:25:19;98659.69;;;22.86;54.42
55418;BME280;41287;47.554;7.844;2022-07-06T10:27:45;98651.50;;;22.86;54.51
55418;BME280;41287;47.554;7.844;2022-07-06T10:30:11;98655.03;;;22.87;54.33
55418;BME280;41287;47.554;7.844;2022-07-06T10:32:39;98643.28;;;22.86;54.55
55418;BME280;41287;47.554;7.844;2022-07-06T10:35:05;98633.94;;;22.87;54.68
55418;BME280;41287;47.554;7.844;2022-07-06T10:37:31;98646.81;;;22.87;54.67
55418;BME280;41287;47.554;7.844;2022-07-06T10:39:58;98646.03;;;22.86;54.37
55418;BME280;41287;47.554;7.844;2022-07-06T10:45:12;98639.41;;;22.87;54.71
55418;BME280;41287;47.554;7.844;2022-07-06T10:47:40;98635.88;;;22.87;54.58
55418;BME280;41287;47.554;7.844;2022-07-06T10:50:06;98631.59;;;22.86;54.53
55418;BME280;41287;47.554;7.844;2022-07-06T10:52:59;98626.47;;;22.84;54.57
55418;BME280;41287;47.554;7.844;2022-07-06T10:55:28;98627.69;;;22.87;54.42
55418;BME280;41287;47.554;7.844;2022-07-06T10:57:55;98624.97;;;22.87;54.60
55418;BME280;41287;47.554;7.844;2022-07-06T11:00:21;98616.75;;;22.87;54.51
55418;BME280;41287;47.554;7.844;2022-07-06T11:02:46;98622.59;;;22.85;54.47
55418;BME280;41287;47.554;7.844;2022-07-06T11:05:11;98614.03;;;22.87;54.50
55418;BME280;41287;47.554;7.844;2022-07-06T11:08:00;98605.41;;;22.84;54.58
55418;BME280;41287;47.554;7.844;2022-07-06T11:10:26;98607.75;;;22.86;54.63
55418;BME280;41287;47.554;7.844;2022-07-06T11:12:59;98609.72;;;22.86;54.61
55418;BME280;41287;47.554;7.844;2022-07-06T11:15:47;98609.28;;;22.83;54.44
55418;BME280;41287;47.554;7.844;2022-07-06T11:18:19;98614.41;;;22.85;54.75
55418;BME280;41287;47.554;7.844;2022-07-06T11:21:14;98610.06;;;22.84;54.69
55418;BME280;41287;47.554;7.844;2022-07-06T11:23:40;98587.88;;;22.86;54.33
55418;BME280;41287;47.554;7.844;2022-07-06T11:26:06;98596.84;;;22.86;54.56
55418;BME280;41287;47.554;7.844;2022-07-06T11:28:32;98594.09;;;22.86;54.85
55418;BME280;41287;47.554;7.844;2022-07-06T11:30:57;98593.34;;;22.86;54.85
55418;BME280;41287;47.554;7.844;2022-07-06T11:33:31;98590.94;;;22.84;54.55
55418;BME280;41287;47.554;7.844;2022-07-06T11:36:19;98597.22;;;22.84;54.51
55418;BME280;41287;47.554;7.844;2022-07-06T11:38:46;98582.41;;;22.86;54.34
55418;BME280;41287;47.554;7.844;2022-07-06T11:41:12;98587.88;;;22.86;54.30
55418;BME280;41287;47.554;7.844;2022-07-06T11:43:46;98587.06;;;22.85;54.62
55418;BME280;41287;47.554;7.844;2022-07-06T11:46:27;98594.03;;;22.82;54.85
55418;BME280;41287;47.554;7.844;2022-07-06T11:48:57;98585.91;;;22.86;54.55
55418;BME280;41287;47.554;7.844;2022-07-06T11:51:25;98576.94;;;22.86;54.50
55418;BME280;41287;47.554;7.844;2022-07-06T11:53:54;98587.88;;;22.86;54.36
55418;BME280;41287;47.554;7.844;2022-07-06T11:56:19;98585.13;;;22.86;54.54
55418;BME280;41287;47.554;7.844;2022-07-06T11:58:48;98587.06;;;22.85;54.62
55418;BME280;41287;47.554;7.844;2022-07-06T12:01:16;98587.41;;;22.83;54.52
55418;BME280;41287;47.554;7.844;2022-07-06T12:03:44;98595.28;;;22.85;54.78
55418;BME280;41287;47.554;7.844;2022-07-06T12:06:18;98597.22;;;22.84;54.78
55418;BME280;41287;47.554;7.844;2022-07-06T12:08:55;98586.28;;;22.84;54.74
55418;BME280;41287;47.554;7.844;2022-07-06T12:11:32;98584.34;;;22.85;54.59
55418;BME280;41287;47.554;7.844;2022-07-06T12:14:03;98583.53;;;22.84;54.66
55418;BME280;41287;47.554;7.844;2022-07-06T12:16:37;98579.69;;;22.86;54.58
55418;BME280;41287;47.554;7.844;2022-07-06T12:19:05;98575.34;;;22.84;54.70
55418;BME280;41287;47.554;7.844;2022-07-06T12:21:31;98585.13;;;22.86;54.61
55418;BME280;41287;47.554;7.844;2022-07-06T12:23:57;98577.28;;;22.84;54.32
55418;BME280;41287;47.554;7.844;2022-07-06T12:26:28;98580.03;;;22.84;54.66
55418;BME280;41287;47.554;7.844;2022-07-06T12:33:58;98573.41;;;22.85;54.38
55418;BME280;41287;47.554;7.844;2022-07-06T12:36:24;98573.41;;;22.85;54.82
55418;BME280;41287;47.554;7.844;2022-07-06T12:38:50;98574.22;;;22.86;54.77
55418;BME280;41287;47.554;7.844;2022-07-06T12:41:49;98563.97;;;22.82;54.45
55418;BME280;41287;47.554;7.844;2022-07-06T12:44:17;98565.22;;;22.85;54.40
55418;BME280;41287;47.554;7.844;2022-07-06T12:46:44;98570.31;;;22.87;54.68
55418;BME280;41287;47.554;7.844;2022-07-06T12:49:22;98568.75;;;22.86;54.29
55418;BME280;41287;47.554;7.844;2022-07-06T12:51:57;98557.03;;;22.85;54.52
55418;BME280;41287;47.554;7.844;2022-07-06T12:54:25;98555.84;;;22.86;54.44
55418;BME280;41287;47.554;7.844;2022-07-06T12:57:09;98558.16;;;22.84;54.69
55418;BME280;41287;47.554;7.844;2022-07-06T12:59:41;98553.50;;;22.84;54.72
55418;BME280;41287;47.554;7.844;2022-07-06T13:02:25;98554.28;;;22.85;54.36
55418;BME280;41287;47.554;7.844;2022-07-06T13:04:56;98554.28;;;22.85;54.71
55418;BME280;41287;47.554;7.844;2022-07-06T13:07:25;98546.09;;;22.85;54.55
55418;BME280;41287;47.554;7.844;2022-07-06T13:09:51;98549.63;;;22.86;54.57
55418;BME280;41287;47.554;7.844;2022-07-06T13:12:17;98559.75;;;22.85;54.52